< < Back
Terminal Aerodrome Forecast


Current Version              Previous Versions:   1  2  3  4  5  6  7  8  9  

Terminal Aerodrome Forecast

674
FTUS44 KMOB 262243 AAA
TAFPNS
TAF AMD
KPNS 262243Z 2623/2718 28003KT P6SM FEW045 SCT070 BKN110
     FM270600 00000KT P6SM SCT250
     FM271200 00000KT 4SM BR SCT250
     FM271400 05002KT P6SM FEW250=



Latest METAR

634
SAUS70 KWBC 270500 RRH
MTRPNS
METAR KPNS 270453Z AUTO 08004KT 9SM CLR 23/22 A2998 RMK AO2 SLP154
T02280217


USA.gov is the U.S. government's official web portal to all federal, state and local government web resources and services.